createdAt,value
2022-10-14T00:00:49.006Z,2.40
2022-10-14T00:01:50.829Z,2.40
2022-10-14T00:02:52.492Z,2.80
2022-10-14T00:03:55.083Z,2.63
2022-10-14T00:04:56.736Z,2.83
2022-10-14T00:05:58.523Z,2.55
2022-10-14T00:07:00.208Z,2.60
2022-10-14T00:08:01.854Z,3.10
2022-10-14T00:09:07.533Z,2.80
2022-10-14T00:10:09.403Z,3.20
2022-10-14T00:11:18.919Z,2.53
2022-10-14T00:12:20.592Z,2.70
2022-10-14T00:13:22.269Z,3.33
2022-10-14T00:14:24.029Z,2.10
2022-10-14T00:15:25.708Z,2.58
2022-10-14T00:16:30.150Z,2.88
2022-10-14T00:17:31.846Z,2.85
2022-10-14T00:18:33.733Z,2.90
2022-10-14T00:19:35.410Z,2.50
2022-10-14T00:20:37.224Z,2.78
2022-10-14T00:21:42.015Z,2.63
2022-10-14T00:22:44.114Z,2.42
2022-10-14T00:23:46.842Z,2.95
2022-10-14T00:24:48.535Z,2.40
2022-10-14T00:25:50.326Z,2.60
2022-10-14T00:26:52.048Z,2.40
2022-10-14T00:27:54.458Z,1.80
2022-10-14T00:28:57.110Z,2.22
2022-10-14T00:29:58.831Z,2.00
2022-10-14T00:31:02.630Z,2.70
2022-10-14T00:32:04.518Z,1.98
2022-10-14T00:33:06.180Z,1.70
2022-10-14T00:34:08.000Z,1.92
2022-10-14T00:35:09.770Z,2.15
2022-10-14T00:36:15.137Z,2.20
2022-10-14T00:37:16.793Z,2.15
2022-10-14T00:38:18.419Z,2.28
2022-10-14T00:39:20.068Z,2.00
2022-10-14T00:40:21.797Z,1.90
2022-10-14T00:41:31.910Z,2.10
2022-10-14T00:42:34.459Z,2.00
2022-10-14T00:44:14.535Z,2.15
2022-10-14T00:45:21.527Z,2.40
2022-10-14T00:46:24.699Z,2.25
2022-10-14T00:47:26.477Z,2.13
2022-10-14T00:48:28.131Z,1.95
2022-10-14T00:49:34.296Z,2.10
2022-10-14T00:50:37.002Z,2.20
2022-10-14T00:51:41.057Z,2.22
2022-10-14T00:52:44.384Z,2.35
2022-10-14T00:53:47.433Z,2.17
2022-10-14T00:54:53.912Z,2.20
2022-10-14T00:55:55.553Z,2.33
2022-10-14T00:56:57.311Z,2.60
2022-10-14T00:57:59.007Z,2.28
2022-10-14T00:59:03.891Z,2.22
2022-10-14T01:00:12.394Z,2.58
2022-10-14T01:01:14.239Z,2.60
2022-10-14T01:02:15.949Z,2.42
2022-10-14T01:03:20.760Z,2.63
2022-10-14T01:04:22.459Z,2.60
2022-10-14T01:05:31.752Z,2.33
2022-10-14T01:07:01.983Z,2.75
2022-10-14T01:08:11.549Z,2.85
2022-10-14T01:09:16.769Z,2.20
2022-10-14T01:10:44.318Z,2.33
2022-10-14T01:12:04.210Z,2.50
2022-10-14T01:13:40.551Z,2.60
2022-10-14T01:14:51.513Z,2.55
2022-10-14T01:16:17.254Z,2.70
2022-10-14T01:17:27.664Z,2.35
2022-10-14T01:18:44.560Z,2.40
2022-10-14T01:19:58.861Z,2.05
2022-10-14T01:21:23.696Z,2.25
2022-10-14T01:22:35.258Z,2.25
2022-10-14T01:24:13.832Z,2.20
2022-10-14T01:25:30.767Z,2.03
2022-10-14T01:26:51.318Z,2.50
2022-10-14T01:28:08.429Z,1.97
2022-10-14T01:29:24.981Z,2.20
2022-10-14T01:30:32.969Z,2.10
2022-10-14T01:31:38.859Z,1.90
2022-10-14T01:33:11.333Z,2.30
2022-10-14T01:34:20.790Z,2.42
2022-10-14T01:36:00.508Z,2.30
2022-10-14T01:37:09.852Z,2.28
2022-10-14T01:38:16.660Z,2.33
2022-10-14T01:39:23.714Z,2.20
2022-10-14T01:40:47.610Z,2.17
2022-10-14T01:41:55.356Z,2.15
2022-10-14T01:43:00.756Z,2.20
2022-10-14T01:44:08.317Z,2.50
2022-10-14T01:45:19.408Z,2.33
2022-10-14T01:46:25.163Z,2.35
2022-10-14T01:47:30.777Z,2.70
2022-10-14T01:48:37.067Z,2.58
2022-10-14T01:49:44.306Z,2.42
2022-10-14T01:50:50.235Z,2.20
2022-10-14T01:52:07.560Z,2.10
2022-10-14T01:53:14.614Z,2.03
2022-10-14T01:54:21.752Z,2.25
2022-10-14T01:55:27.502Z,2.65
2022-10-14T01:56:33.477Z,2.40
2022-10-14T01:57:40.303Z,2.35
2022-10-14T01:58:43.750Z,2.97
2022-10-14T01:59:47.302Z,2.75
2022-10-14T02:00:49.049Z,2.78
2022-10-14T02:01:50.709Z,2.30
2022-10-14T02:02:52.490Z,2.60
2022-10-14T02:03:54.370Z,2.70
2022-10-14T02:04:56.006Z,2.65
2022-10-14T02:06:03.682Z,2.83
2022-10-14T02:07:05.274Z,2.58
2022-10-14T02:08:29.677Z,2.70
2022-10-14T02:10:09.475Z,2.83
2022-10-14T02:11:18.942Z,2.65
2022-10-14T02:12:23.533Z,2.70
2022-10-14T02:13:58.323Z,2.80
2022-10-14T02:15:29.692Z,2.42
2022-10-14T02:16:40.793Z,2.67
2022-10-14T02:17:55.868Z,2.70
2022-10-14T02:19:29.738Z,2.72
2022-10-14T02:20:36.054Z,2.60
2022-10-14T02:21:42.261Z,2.70
2022-10-14T02:22:50.554Z,2.90
2022-10-14T02:24:03.222Z,2.60
2022-10-14T02:25:14.750Z,2.47
2022-10-14T02:26:17.554Z,3.08
2022-10-14T02:27:22.275Z,2.80
2022-10-14T02:28:27.839Z,3.15
2022-10-14T02:29:32.010Z,2.95
2022-10-14T02:30:38.148Z,2.70
2022-10-14T02:31:41.942Z,2.80
2022-10-14T02:32:45.120Z,3.15
2022-10-14T02:33:51.950Z,3.05
2022-10-14T02:34:57.650Z,2.78
2022-10-14T02:36:01.707Z,3.00
2022-10-14T02:37:04.088Z,3.10
2022-10-14T02:38:08.145Z,2.90
2022-10-14T02:39:13.085Z,2.90
2022-10-14T02:40:20.787Z,3.08
2022-10-14T02:41:25.782Z,2.65
2022-10-14T02:42:28.243Z,2.70
2022-10-14T02:43:30.290Z,3.00
2022-10-14T02:44:31.959Z,3.25
2022-10-14T02:45:35.078Z,2.67
2022-10-14T02:46:39.765Z,2.90
2022-10-14T02:47:41.442Z,3.00
2022-10-14T02:48:43.130Z,3.20
2022-10-14T02:49:44.784Z,3.30
2022-10-14T02:50:46.585Z,3.22
2022-10-14T02:51:48.594Z,3.00
2022-10-14T02:52:50.241Z,2.88
2022-10-14T02:53:51.922Z,3.30
2022-10-14T02:54:53.615Z,3.08
2022-10-14T02:55:55.323Z,3.35
2022-10-14T02:56:56.970Z,3.33
2022-10-14T02:57:58.612Z,3.03
2022-10-14T02:59:00.271Z,3.70
2022-10-14T03:00:01.980Z,3.75
2022-10-14T03:01:03.667Z,3.63
2022-10-14T03:02:07.598Z,3.95
2022-10-14T03:03:09.362Z,4.07
2022-10-14T03:04:11.054Z,4.60
2022-10-14T03:05:12.738Z,4.43
2022-10-14T03:06:14.596Z,4.72
2022-10-14T03:07:16.276Z,4.60
2022-10-14T03:08:17.909Z,4.90
2022-10-14T03:09:20.006Z,4.38
2022-10-14T03:10:21.767Z,4.57
2022-10-14T03:11:23.428Z,4.00
2022-10-14T03:12:25.674Z,4.57
2022-10-14T03:13:27.421Z,4.43
2022-10-14T03:14:29.105Z,3.92
2022-10-14T03:15:30.786Z,4.38
2022-10-14T03:16:32.482Z,4.22
2022-10-14T03:17:34.145Z,4.47
2022-10-14T03:18:35.796Z,4.10
2022-10-14T03:19:37.431Z,4.40
2022-10-14T03:20:39.140Z,4.47
2022-10-14T03:21:40.804Z,4.50
2022-10-14T03:22:42.534Z,5.00
2022-10-14T03:23:44.297Z,4.35
2022-10-14T03:24:45.941Z,4.38
2022-10-14T03:25:48.564Z,4.70
2022-10-14T03:26:50.231Z,4.72
2022-10-14T03:27:51.929Z,4.93
2022-10-14T03:28:53.857Z,4.88
2022-10-14T03:29:55.569Z,5.15
2022-10-14T03:30:57.232Z,5.03
2022-10-14T03:31:58.891Z,5.40
2022-10-14T03:33:00.546Z,5.18
2022-10-14T03:34:02.485Z,4.88
2022-10-14T03:35:04.367Z,5.10
2022-10-14T03:36:06.356Z,4.90
2022-10-14T03:37:08.061Z,5.60
2022-10-14T03:38:09.725Z,4.85
2022-10-14T03:39:12.342Z,5.35
2022-10-14T03:40:14.278Z,4.88
2022-10-14T03:41:15.918Z,5.28
2022-10-14T03:42:17.604Z,4.43
2022-10-14T03:43:19.301Z,5.13
2022-10-14T03:44:21.010Z,4.93
2022-10-14T03:45:22.670Z,5.07
2022-10-14T03:46:24.426Z,5.68
2022-10-14T03:47:26.080Z,5.30
2022-10-14T03:48:27.779Z,5.32
2022-10-14T03:49:29.454Z,5.40
2022-10-14T03:50:31.488Z,5.07
2022-10-14T03:51:33.292Z,4.95
2022-10-14T03:52:35.032Z,5.53
2022-10-14T03:53:37.012Z,5.40
2022-10-14T03:54:38.656Z,4.78
2022-10-14T03:55:40.490Z,5.35
2022-10-14T03:56:42.226Z,5.40
2022-10-14T03:57:44.101Z,5.45
2022-10-14T03:58:45.731Z,4.97
2022-10-14T03:59:47.376Z,5.95
2022-10-14T04:00:49.039Z,6.20
2022-10-14T04:01:50.760Z,6.35
2022-10-14T04:02:52.492Z,6.25
2022-10-14T04:03:54.123Z,5.55
2022-10-14T04:04:59.974Z,8.02
2022-10-14T04:06:02.468Z,5.90
2022-10-14T04:07:04.133Z,6.65
2022-10-14T04:08:06.297Z,5.47
2022-10-14T04:09:08.105Z,5.90
2022-10-14T04:10:09.846Z,7.15
2022-10-14T04:11:11.489Z,6.40
2022-10-14T04:12:13.204Z,5.82
2022-10-14T04:13:14.978Z,5.57
2022-10-14T04:14:16.680Z,5.88
2022-10-14T04:15:18.358Z,6.72
2022-10-14T04:16:20.439Z,8.13
2022-10-14T04:17:22.093Z,6.93
2022-10-14T04:18:23.773Z,6.50
2022-10-14T04:19:25.647Z,6.45
2022-10-14T04:20:27.420Z,6.28
2022-10-14T04:21:29.155Z,5.13
2022-10-14T04:22:30.899Z,5.88
2022-10-14T04:23:32.913Z,5.82
2022-10-14T04:24:34.606Z,5.88
2022-10-14T04:25:39.444Z,5.43
2022-10-14T04:26:41.102Z,5.35
2022-10-14T04:27:42.738Z,5.85
2022-10-14T04:28:44.417Z,5.97
2022-10-14T04:29:46.193Z,6.00
2022-10-14T04:30:47.851Z,6.28
2022-10-14T04:31:49.679Z,5.63
2022-10-14T04:32:51.333Z,5.68
2022-10-14T04:33:53.297Z,5.70
2022-10-14T04:34:55.137Z,6.05
2022-10-14T04:36:01.255Z,6.22
2022-10-14T04:37:03.388Z,6.13
2022-10-14T04:38:05.251Z,6.07
2022-10-14T04:39:07.110Z,5.90
2022-10-14T04:40:09.088Z,5.80
2022-10-14T04:41:10.819Z,5.93
2022-10-14T04:42:12.575Z,5.35
2022-10-14T04:43:14.228Z,5.90
2022-10-14T04:44:16.048Z,5.85
2022-10-14T04:45:17.697Z,6.10
2022-10-14T04:46:19.365Z,5.85
2022-10-14T04:47:21.055Z,6.72
2022-10-14T04:48:22.767Z,5.95
2022-10-14T04:49:24.516Z,6.05
2022-10-14T04:50:26.467Z,6.00
2022-10-14T04:51:28.182Z,5.72
2022-10-14T04:52:29.884Z,5.93
2022-10-14T04:53:31.522Z,6.40
2022-10-14T04:54:33.191Z,7.00
2022-10-14T04:55:34.951Z,6.97
2022-10-14T04:56:37.042Z,6.95
2022-10-14T04:57:43.942Z,5.88
2022-10-14T04:58:45.690Z,6.38
2022-10-14T04:59:47.340Z,6.55
2022-10-14T05:00:49.085Z,6.72
2022-10-14T05:01:50.807Z,6.43
2022-10-14T05:02:52.585Z,7.35
2022-10-14T05:03:54.243Z,7.00
2022-10-14T05:04:56.569Z,6.70
2022-10-14T05:05:59.200Z,6.78
2022-10-14T05:07:00.894Z,7.25
2022-10-14T05:08:02.629Z,7.07
2022-10-14T05:09:06.100Z,7.35
2022-10-14T05:10:10.371Z,7.07
2022-10-14T05:11:12.049Z,7.13
2022-10-14T05:12:14.801Z,6.70
2022-10-14T05:13:17.670Z,7.32
2022-10-14T05:14:19.381Z,7.38
2022-10-14T05:15:21.743Z,6.55
2022-10-14T05:16:23.399Z,6.47
2022-10-14T05:17:25.197Z,6.75
2022-10-14T05:18:26.885Z,5.97
2022-10-14T05:19:28.578Z,6.20
2022-10-14T05:20:30.741Z,6.50
2022-10-14T05:21:32.447Z,5.93
2022-10-14T05:22:34.205Z,6.40
2022-10-14T05:23:35.924Z,6.78
2022-10-14T05:24:37.616Z,5.85
2022-10-14T05:25:39.380Z,5.57
2022-10-14T05:26:41.060Z,5.55
2022-10-14T05:27:42.902Z,4.90
2022-10-14T05:28:44.648Z,5.43
2022-10-14T05:29:46.406Z,4.95
2022-10-14T05:30:48.152Z,5.43
2022-10-14T05:31:49.840Z,5.32
2022-10-14T05:32:51.492Z,5.07
2022-10-14T05:33:53.332Z,5.18
2022-10-14T05:34:55.415Z,5.57
2022-10-14T05:35:59.649Z,5.35
2022-10-14T05:37:02.129Z,5.22
2022-10-14T05:38:04.750Z,5.13
2022-10-14T05:39:09.688Z,5.13
2022-10-14T05:40:11.766Z,4.70
2022-10-14T05:41:13.415Z,4.55
2022-10-14T05:42:15.124Z,4.35
2022-10-14T05:43:16.780Z,4.70
2022-10-14T05:44:18.583Z,4.60
2022-10-14T05:45:20.311Z,4.57
2022-10-14T05:46:22.203Z,4.70
2022-10-14T05:47:23.990Z,4.68
2022-10-14T05:48:25.682Z,4.90
2022-10-14T05:49:27.779Z,4.78
2022-10-14T05:50:29.539Z,4.68
2022-10-14T05:51:31.247Z,5.03
2022-10-14T05:52:34.354Z,4.68
2022-10-14T05:53:37.054Z,4.78
2022-10-14T05:54:38.877Z,4.82
2022-10-14T05:55:41.960Z,4.80
2022-10-14T05:56:44.020Z,4.95
2022-10-14T05:57:45.856Z,5.10
2022-10-14T05:58:47.912Z,4.60
2022-10-14T05:59:49.777Z,4.60
2022-10-14T06:00:51.823Z,4.28
2022-10-14T06:01:53.789Z,4.40
2022-10-14T06:02:58.096Z,4.32
2022-10-14T06:04:00.177Z,3.85
2022-10-14T06:05:02.670Z,4.30
2022-10-14T06:06:04.777Z,3.92
2022-10-14T06:07:07.341Z,3.72
2022-10-14T06:08:09.362Z,4.13
2022-10-14T06:09:11.700Z,4.22
2022-10-14T06:10:13.837Z,4.63
2022-10-14T06:11:15.753Z,3.97
2022-10-14T06:12:17.739Z,4.25
2022-10-14T06:13:20.602Z,3.50
2022-10-14T06:14:22.525Z,3.60
2022-10-14T06:15:24.499Z,3.88
2022-10-14T06:16:26.485Z,3.60
2022-10-14T06:17:29.246Z,3.65
2022-10-14T06:18:31.344Z,3.10
2022-10-14T06:19:33.866Z,4.63
2022-10-14T06:20:36.598Z,3.45
2022-10-14T06:21:38.694Z,3.00
2022-10-14T06:22:40.873Z,2.72
2022-10-14T06:23:42.946Z,3.90
2022-10-14T06:24:45.112Z,3.55
2022-10-14T06:25:47.256Z,2.80
2022-10-14T06:26:49.550Z,2.95
2022-10-14T06:27:51.696Z,4.00
2022-10-14T06:28:54.024Z,3.00
2022-10-14T06:29:56.345Z,3.30
2022-10-14T06:30:58.583Z,3.03
2022-10-14T06:32:00.634Z,2.78
2022-10-14T06:33:02.754Z,3.55
2022-10-14T06:34:06.239Z,2.80
2022-10-14T06:35:09.029Z,3.00
2022-10-14T06:36:11.979Z,3.47
2022-10-14T06:37:14.164Z,3.17
2022-10-14T06:38:16.737Z,3.10
2022-10-14T06:39:18.892Z,3.05
2022-10-14T06:40:21.492Z,3.65
2022-10-14T06:41:24.131Z,3.15
2022-10-14T06:42:26.721Z,3.13
2022-10-14T06:43:29.105Z,3.25
2022-10-14T06:44:31.325Z,3.35
2022-10-14T06:45:33.938Z,3.22
2022-10-14T06:46:35.863Z,3.22
2022-10-14T06:47:37.810Z,4.50
2022-10-14T06:48:39.708Z,5.75
2022-10-14T06:49:41.662Z,6.00
2022-10-14T06:50:44.216Z,2.63
2022-10-14T06:51:46.307Z,2.50
2022-10-14T06:52:48.457Z,2.58
2022-10-14T06:53:50.558Z,2.90
2022-10-14T06:54:52.661Z,3.13
2022-10-14T06:56:00.120Z,2.58
2022-10-14T06:57:02.141Z,2.38
2022-10-14T06:58:04.309Z,2.35
2022-10-14T06:59:06.392Z,2.38
2022-10-14T07:00:09.343Z,2.70
2022-10-14T07:01:11.790Z,2.47
2022-10-14T07:02:14.403Z,2.70
2022-10-14T07:03:16.672Z,2.83
2022-10-14T07:04:18.898Z,2.45
2022-10-14T07:05:21.016Z,2.80
2022-10-14T07:06:23.243Z,2.30
2022-10-14T07:07:25.556Z,3.13
2022-10-14T07:08:27.795Z,3.10
2022-10-14T07:09:30.033Z,3.40
2022-10-14T07:10:32.236Z,3.03
2022-10-14T07:11:34.426Z,3.35
2022-10-14T07:12:36.730Z,3.17
2022-10-14T07:13:40.125Z,3.58
2022-10-14T07:14:42.333Z,3.70
2022-10-14T07:15:48.663Z,3.38
2022-10-14T07:16:51.009Z,3.30
2022-10-14T07:17:53.273Z,3.70
2022-10-14T07:18:55.707Z,3.83
2022-10-14T07:19:58.313Z,4.00
2022-10-14T07:21:07.355Z,4.40
2022-10-14T07:22:09.735Z,4.40
2022-10-14T07:23:12.200Z,3.90
2022-10-14T07:24:14.702Z,3.50
2022-10-14T07:25:17.073Z,3.60
2022-10-14T07:26:19.352Z,3.72
2022-10-14T07:27:22.066Z,4.32
2022-10-14T07:28:24.769Z,3.88
2022-10-14T07:29:27.055Z,4.10
2022-10-14T07:30:29.448Z,3.60
2022-10-14T07:31:31.814Z,3.25
2022-10-14T07:32:37.173Z,2.30
2022-10-14T07:33:40.541Z,2.50
2022-10-14T07:35:19.729Z,2.90
2022-10-14T07:37:17.415Z,3.08
2022-10-14T07:38:58.000Z,2.53
2022-10-14T07:39:59.679Z,2.70
2022-10-14T07:41:16.782Z,2.85
2022-10-14T07:43:25.254Z,2.63
2022-10-14T07:44:27.543Z,2.42
2022-10-14T07:45:35.252Z,2.25
2022-10-14T07:46:39.864Z,2.42
2022-10-14T07:47:42.947Z,2.35
2022-10-14T07:48:56.659Z,2.63
2022-10-14T07:50:01.086Z,2.28
2022-10-14T07:51:03.123Z,2.20
2022-10-14T07:52:05.179Z,3.25
2022-10-14T07:53:06.879Z,2.78
2022-10-14T07:54:13.210Z,2.65
2022-10-14T07:55:14.960Z,2.33
2022-10-14T07:56:16.707Z,2.00
2022-10-14T07:57:18.903Z,2.33
2022-10-14T07:58:25.699Z,2.08
2022-10-14T07:59:27.518Z,2.65
2022-10-14T08:00:29.322Z,2.08
2022-10-14T08:01:31.333Z,1.98
2022-10-14T08:02:33.046Z,2.10
2022-10-14T08:03:34.781Z,2.00
2022-10-14T08:04:36.636Z,2.00
2022-10-14T08:05:39.143Z,2.00
2022-10-14T08:06:41.229Z,2.30
2022-10-14T08:07:42.949Z,1.80
2022-10-14T08:08:45.148Z,1.70
2022-10-14T08:09:47.547Z,1.48
2022-10-14T08:10:49.431Z,1.50
2022-10-14T08:11:51.601Z,1.38
2022-10-14T08:12:53.605Z,1.63
2022-10-14T08:13:56.020Z,1.30
2022-10-14T08:14:58.189Z,1.50
2022-10-14T08:16:00.161Z,1.60
2022-10-14T08:17:02.337Z,1.40
2022-10-14T08:18:05.895Z,1.00
2022-10-14T08:19:14.645Z,1.13
2022-10-14T08:20:17.173Z,1.10
2022-10-14T08:21:21.069Z,0.85
2022-10-14T08:22:23.557Z,1.25
2022-10-14T08:23:26.961Z,1.42
2022-10-14T08:24:28.909Z,1.73
2022-10-14T08:25:30.982Z,1.10
2022-10-14T08:26:38.265Z,1.20
2022-10-14T08:27:40.062Z,1.50
2022-10-14T08:28:41.962Z,1.38
2022-10-14T08:29:43.816Z,1.63
2022-10-14T08:30:45.721Z,1.70
2022-10-14T08:31:47.588Z,1.20
2022-10-14T08:32:49.426Z,1.50
2022-10-14T08:33:51.527Z,1.42
2022-10-14T08:34:55.806Z,1.48
2022-10-14T08:35:57.923Z,1.40
2022-10-14T08:36:59.867Z,1.63
2022-10-14T08:38:02.823Z,1.38
2022-10-14T08:39:06.635Z,1.60
2022-10-14T08:40:11.879Z,1.70
2022-10-14T08:41:16.550Z,1.92
2022-10-14T08:42:34.717Z,1.73
2022-10-14T08:44:09.994Z,1.63
2022-10-14T08:45:25.018Z,1.85
2022-10-14T08:46:30.548Z,1.70
2022-10-14T08:47:37.782Z,1.90
2022-10-14T08:48:40.276Z,1.80
2022-10-14T08:50:03.090Z,1.88
2022-10-14T08:51:12.846Z,2.00
2022-10-14T08:52:21.146Z,2.20
2022-10-14T08:53:29.136Z,2.00
2022-10-14T08:54:41.104Z,1.75
2022-10-14T08:55:50.975Z,2.08
2022-10-14T08:56:53.678Z,2.22
2022-10-14T08:58:19.583Z,2.00
2022-10-14T08:59:23.179Z,2.00
2022-10-14T09:00:25.255Z,2.65
2022-10-14T09:01:31.962Z,2.08
2022-10-14T09:02:50.451Z,1.83
2022-10-14T09:03:58.444Z,1.60
2022-10-14T09:05:02.254Z,1.60
2022-10-14T09:06:10.790Z,1.98
2022-10-14T09:07:18.998Z,1.80
2022-10-14T09:08:28.424Z,1.35
2022-10-14T09:09:53.368Z,1.55
2022-10-14T09:10:55.442Z,1.50
2022-10-14T09:12:01.351Z,1.48
2022-10-14T09:13:29.171Z,1.20
2022-10-14T09:14:36.511Z,1.30
2022-10-14T09:15:42.757Z,1.40
2022-10-14T09:16:50.345Z,1.45
2022-10-14T09:18:06.094Z,1.30
2022-10-14T09:19:39.694Z,1.40
2022-10-14T09:20:43.694Z,1.40
2022-10-14T09:21:54.595Z,1.40
2022-10-14T09:22:59.504Z,1.40
2022-10-14T09:24:01.446Z,1.40
2022-10-14T09:25:03.534Z,1.50
2022-10-14T09:26:11.813Z,1.42
2022-10-14T09:27:23.361Z,1.20
2022-10-14T09:28:44.655Z,1.50
2022-10-14T09:29:51.285Z,1.10
2022-10-14T09:30:53.253Z,1.30
2022-10-14T09:32:08.988Z,1.20
2022-10-14T09:33:18.199Z,1.15
2022-10-14T09:34:28.785Z,1.25
2022-10-14T09:35:37.710Z,1.48
2022-10-14T09:36:39.871Z,1.35
2022-10-14T09:37:42.487Z,1.48
2022-10-14T09:38:47.489Z,1.50
2022-10-14T09:39:50.861Z,1.48
2022-10-14T09:40:58.655Z,1.20
2022-10-14T09:42:01.149Z,1.48
2022-10-14T09:43:08.768Z,1.42
2022-10-14T09:44:26.117Z,1.20
2022-10-14T09:45:59.407Z,1.40
2022-10-14T09:47:10.734Z,1.73
2022-10-14T09:48:41.297Z,1.33
2022-10-14T09:49:46.462Z,1.10
2022-10-14T09:50:56.973Z,1.10
2022-10-14T09:51:59.220Z,1.40
2022-10-14T09:53:10.651Z,1.40
2022-10-14T09:54:26.719Z,1.40
2022-10-14T09:55:29.900Z,1.20
2022-10-14T09:56:41.605Z,1.50
2022-10-14T09:57:44.879Z,2.13
2022-10-14T09:58:53.849Z,1.75
2022-10-14T10:00:00.743Z,1.52
2022-10-14T10:01:03.646Z,1.65
2022-10-14T10:02:16.706Z,1.30
2022-10-14T10:03:32.808Z,1.80
2022-10-14T10:04:47.812Z,1.63
2022-10-14T10:06:00.350Z,1.50
2022-10-14T10:07:07.130Z,1.50
2022-10-14T10:08:17.098Z,1.40
2022-10-14T10:09:20.167Z,2.33
2022-10-14T10:10:22.908Z,1.27
2022-10-14T10:11:38.964Z,1.33
2022-10-14T10:12:46.334Z,1.20
2022-10-14T10:13:48.538Z,1.45
2022-10-14T10:14:58.999Z,1.45
2022-10-14T10:16:04.130Z,1.77
2022-10-14T10:17:10.000Z,1.40
2022-10-14T10:18:24.099Z,1.50
2022-10-14T10:19:32.439Z,1.10
2022-10-14T10:20:36.092Z,1.50
2022-10-14T10:21:38.059Z,1.67
2022-10-14T10:22:40.268Z,1.13
2022-10-14T10:23:53.577Z,1.10
2022-10-14T10:25:01.612Z,1.10
2022-10-14T10:26:29.535Z,1.58
2022-10-14T10:27:38.729Z,1.00
2022-10-14T10:28:46.258Z,1.30
2022-10-14T10:29:48.211Z,1.25
2022-10-14T10:31:19.679Z,1.23
2022-10-14T10:33:54.193Z,1.38
2022-10-14T10:35:22.628Z,1.38
2022-10-14T10:36:54.104Z,1.15
2022-10-14T10:38:01.404Z,1.20
2022-10-14T10:39:14.280Z,0.88
2022-10-14T10:40:40.022Z,1.30
2022-10-14T10:41:58.690Z,1.17
2022-10-14T10:43:18.762Z,1.17
2022-10-14T10:44:29.299Z,1.00
2022-10-14T10:45:43.981Z,1.13
2022-10-14T10:46:51.537Z,1.13
2022-10-14T10:48:09.555Z,1.05
2022-10-14T10:49:30.866Z,1.20
2022-10-14T10:52:17.360Z,1.17
2022-10-14T10:53:43.656Z,1.00
2022-10-14T10:55:06.265Z,1.15
2022-10-14T10:56:13.665Z,0.93
2022-10-14T10:57:43.925Z,0.80
2022-10-14T10:58:56.698Z,1.13
2022-10-14T11:00:12.868Z,1.10
2022-10-14T11:01:36.761Z,1.00
2022-10-14T11:02:44.329Z,0.90
2022-10-14T11:04:23.198Z,1.10
2022-10-14T11:05:43.159Z,1.13
2022-10-14T11:07:12.451Z,1.30
2022-10-14T11:08:53.263Z,1.23
2022-10-14T11:10:33.232Z,1.20
2022-10-14T11:12:14.296Z,1.17
2022-10-14T11:13:30.740Z,1.20
2022-10-14T11:14:55.415Z,1.10
2022-10-14T11:16:07.778Z,0.90
2022-10-14T11:17:15.474Z,1.13
2022-10-14T11:18:33.743Z,1.05
2022-10-14T11:19:59.060Z,0.90
2022-10-14T11:21:18.608Z,1.10
2022-10-14T11:22:23.589Z,1.10
2022-10-14T11:23:42.667Z,0.90
2022-10-14T11:25:18.122Z,0.88
2022-10-14T11:26:37.775Z,0.70
2022-10-14T11:27:54.063Z,1.00
2022-10-14T11:29:46.758Z,1.02
2022-10-14T11:31:18.595Z,1.02
2022-10-14T11:32:32.765Z,1.13
2022-10-14T11:34:02.580Z,1.30
2022-10-14T11:35:19.412Z,1.10
2022-10-14T11:36:55.429Z,1.23
2022-10-14T11:39:42.334Z,1.00
2022-10-14T11:41:08.404Z,0.90
2022-10-14T11:42:15.987Z,1.08
2022-10-14T11:43:17.587Z,1.08
2022-10-14T11:44:31.142Z,0.93
2022-10-14T11:45:35.562Z,1.30
2022-10-14T11:46:43.071Z,1.10
2022-10-14T11:47:48.789Z,1.20
2022-10-14T11:48:55.964Z,1.10
2022-10-14T11:50:03.383Z,1.33
2022-10-14T11:51:13.202Z,1.23
2022-10-14T11:52:22.262Z,1.00
2022-10-14T11:53:33.689Z,1.17
2022-10-14T11:54:44.168Z,1.15
2022-10-14T11:56:14.957Z,1.42
2022-10-14T11:57:38.379Z,1.30
2022-10-14T11:58:42.638Z,1.25
2022-10-14T12:00:18.726Z,1.40
2022-10-14T12:01:27.938Z,1.08
2022-10-14T12:02:41.118Z,1.20
2022-10-14T12:04:04.486Z,1.38
2022-10-14T12:05:39.344Z,1.30
2022-10-14T12:06:50.100Z,1.67
2022-10-14T12:08:34.695Z,1.50
2022-10-14T12:09:43.613Z,1.50
2022-10-14T12:10:53.310Z,1.17
2022-10-14T12:12:08.182Z,1.17
2022-10-14T12:13:19.753Z,1.10
2022-10-14T12:14:42.705Z,1.40
2022-10-14T12:15:49.428Z,1.38
2022-10-14T12:16:51.645Z,1.10
2022-10-14T12:18:00.447Z,0.82
2022-10-14T12:19:02.326Z,0.98
2022-10-14T12:20:14.961Z,1.10
2022-10-14T12:21:34.631Z,1.25
2022-10-14T12:22:36.611Z,1.13
2022-10-14T12:23:44.235Z,1.00
2022-10-14T12:24:51.055Z,1.20
2022-10-14T12:26:04.335Z,1.20
2022-10-14T12:27:10.485Z,1.05
2022-10-14T12:28:14.515Z,1.63
2022-10-14T12:29:31.576Z,1.60
2022-10-14T12:30:39.687Z,1.52
2022-10-14T12:31:41.767Z,1.52
2022-10-14T12:33:12.593Z,1.67
2022-10-14T12:34:15.379Z,3.10
2022-10-14T12:35:47.335Z,2.75
2022-10-14T12:36:50.735Z,2.22
2022-10-14T12:37:52.862Z,1.88
2022-10-14T12:39:31.184Z,2.00
2022-10-14T12:40:33.019Z,1.88
2022-10-14T12:41:43.709Z,1.95
2022-10-14T12:42:48.537Z,1.65
2022-10-14T12:44:14.756Z,1.45
2022-10-14T12:45:26.266Z,1.73
2022-10-14T12:46:27.973Z,1.70
2022-10-14T12:47:35.259Z,2.03
2022-10-14T12:48:45.883Z,1.50
2022-10-14T12:49:56.701Z,1.73
2022-10-14T12:51:16.019Z,1.33
2022-10-14T12:52:31.285Z,1.65
2022-10-14T12:53:34.700Z,1.17
2022-10-14T12:54:38.540Z,1.33
2022-10-14T12:55:50.698Z,1.27
2022-10-14T12:57:00.536Z,1.42
2022-10-14T12:58:05.074Z,1.38
2022-10-14T13:00:23.549Z,1.65
2022-10-14T13:01:25.261Z,1.48
2022-10-14T13:02:35.327Z,1.75
2022-10-14T13:03:43.750Z,1.40
2022-10-14T13:04:55.333Z,1.30
2022-10-14T13:06:48.880Z,1.15
2022-10-14T13:08:09.004Z,1.15
2022-10-14T13:09:13.938Z,1.65
2022-10-14T13:10:46.910Z,1.58
2022-10-14T13:11:52.138Z,1.23
2022-10-14T13:12:54.196Z,1.67
2022-10-14T13:14:00.739Z,1.23
2022-10-14T13:15:23.747Z,1.40
2022-10-14T13:16:25.368Z,1.70
2022-10-14T13:17:45.415Z,1.58
2022-10-14T13:18:47.004Z,1.40
2022-10-14T13:19:48.823Z,1.40
2022-10-14T13:20:51.796Z,1.35
2022-10-14T13:21:53.946Z,1.30
2022-10-14T13:23:30.540Z,1.65
2022-10-14T13:24:38.620Z,1.60
2022-10-14T13:25:40.393Z,1.98
2022-10-14T13:26:53.915Z,1.60
2022-10-14T13:28:04.435Z,1.55
2022-10-14T13:29:21.491Z,1.50
2022-10-14T13:30:46.204Z,1.48
2022-10-14T13:32:06.537Z,1.50
2022-10-14T13:33:20.589Z,1.30
2022-10-14T13:34:47.001Z,1.40
2022-10-14T13:36:09.780Z,1.40
2022-10-14T13:37:34.787Z,1.20
2022-10-14T13:38:38.656Z,1.60
2022-10-14T13:39:40.396Z,1.50
2022-10-14T13:40:48.364Z,1.50
2022-10-14T13:41:50.655Z,1.40
2022-10-14T13:42:58.686Z,1.50
2022-10-14T13:44:02.069Z,1.30
2022-10-14T13:45:12.205Z,1.48
2022-10-14T13:46:20.399Z,1.25
2022-10-14T13:47:23.456Z,1.50
2022-10-14T13:48:31.694Z,1.52
2022-10-14T13:49:40.484Z,1.70
2022-10-14T13:50:42.627Z,1.75
2022-10-14T13:51:56.118Z,1.50
2022-10-14T13:53:03.296Z,2.10
2022-10-14T13:54:20.013Z,1.63
2022-10-14T13:55:23.902Z,1.70
2022-10-14T13:56:31.427Z,2.13
2022-10-14T13:58:00.071Z,2.30
2022-10-14T13:58:54.867Z,2.00
2022-10-14T14:00:39.443Z,2.28
2022-10-14T14:01:21.445Z,1.80
2022-10-14T14:02:30.166Z,1.55
2022-10-14T14:03:37.764Z,1.95
2022-10-14T14:04:40.170Z,1.77
2022-10-14T14:05:42.394Z,1.90
2022-10-14T14:07:18.313Z,2.22
2022-10-14T14:08:37.192Z,1.63
2022-10-14T14:09:40.427Z,3.17
2022-10-14T14:11:14.375Z,1.88
2022-10-14T14:12:13.748Z,1.85
2022-10-14T14:13:16.155Z,2.00
2022-10-14T14:14:40.835Z,1.77
2022-10-14T14:15:43.642Z,1.80
2022-10-14T14:16:50.474Z,1.98
2022-10-14T14:17:52.435Z,1.58
2022-10-14T14:19:07.699Z,1.83
2022-10-14T14:20:11.759Z,1.52
2022-10-14T14:21:13.837Z,1.92
2022-10-14T14:22:28.646Z,1.88
2022-10-14T14:23:31.068Z,1.60
2022-10-14T14:24:34.351Z,2.10
2022-10-14T14:25:46.569Z,1.90
2022-10-14T14:26:57.838Z,2.30
2022-10-14T14:28:05.846Z,2.42
2022-10-14T14:29:17.416Z,2.20
2022-10-14T14:30:33.757Z,1.92
2022-10-14T14:32:05.103Z,2.10
2022-10-14T14:33:01.013Z,2.65
2022-10-14T14:34:02.786Z,2.65
2022-10-14T14:35:12.170Z,3.33
2022-10-14T14:36:27.767Z,3.95
2022-10-14T14:37:54.990Z,4.43
2022-10-14T14:39:02.304Z,4.68
2022-10-14T14:40:15.059Z,4.57
2022-10-14T14:41:25.340Z,3.50
2022-10-14T14:42:31.014Z,2.85
2022-10-14T14:43:37.366Z,3.08
2022-10-14T14:44:43.553Z,2.75
2022-10-14T14:45:46.549Z,3.15
2022-10-14T14:46:49.669Z,2.42
2022-10-14T14:47:56.823Z,2.03
2022-10-14T14:49:00.109Z,2.08
2022-10-14T14:50:25.389Z,1.92
2022-10-14T14:51:26.621Z,1.98
2022-10-14T14:52:29.183Z,2.55
2022-10-14T14:53:31.230Z,2.10
2022-10-14T14:54:33.000Z,3.00
2022-10-14T14:55:46.047Z,3.00
2022-10-14T14:57:03.972Z,3.92
2022-10-14T14:58:21.354Z,3.80
2022-10-14T14:59:35.575Z,5.00
2022-10-14T15:00:37.270Z,7.10
2022-10-14T15:01:43.232Z,7.00
2022-10-14T15:02:45.813Z,7.93
2022-10-14T15:04:13.617Z,7.20
2022-10-14T15:05:20.359Z,5.60
2022-10-14T15:06:23.014Z,5.03